METAR Data

Data at: 2236 UTC 26 Feb 2020

METAR for:KFMH (Otis ANGB, MA, US)
Text:KFMH 262145Z 06009KT 10SM OVC004 06/06 A2995
Temperature: 6.0°C ( 43°F)
Dewpoint: 6.0°C ( 43°F) [RH = 100%]
Pressure (altimeter):29.95 inches Hg (1014.3 mb)
Winds:from the ENE (60 degrees) at 10 MPH (9 knots; 4.6 m/s)
Visibility:10 or more sm (16+ km)
Ceiling:400 feet AGL
Clouds: overcast cloud deck at 400 feet AGL